Time;durP1;ratioP1;P1;durP2;ratioP2;P2;SDS_P1;SDS_P2;PMS_P1;PMS_P2;Temp;Humidity;BMP_temperature;BMP_pressure;BME280_temperature;BME280_humidity;BME280_pressure;Samples;Min_cycle;Max_cycle;Signal;HPM_P1;HPM_P2
2022/05/06 00:00:30;;;;;;;;;13.25;13.25;;;26.13;98241.52;;;;117430;1191;25559;-49
2022/05/06 00:03:06;;;;;;;;;21.75;20.00;;;26.15;98241.50;;;;117332;1190;25007;-50
2022/05/06 00:05:34;;;;;;;;;29.00;21.75;;;26.15;98242.58;;;;117343;1190;24873;-49
2022/05/06 00:08:02;;;;;;;;;25.33;19.67;;;26.14;98244.02;;;;117399;1190;25448;-52
2022/05/06 00:10:30;;;;;;;;;21.50;20.25;;;26.14;98244.30;;;;117414;1189;24712;-52
2022/05/06 00:12:58;;;;;;;;;21.00;20.33;;;26.13;98241.82;;;;117165;1191;24781;-51
2022/05/06 00:15:26;;;;;;;;;23.33;21.33;;;26.12;98244.84;;;;117341;1190;25653;-47
2022/05/06 00:17:53;;;;;;;;;26.67;20.00;;;26.10;98247.36;;;;117398;1189;24914;-52
2022/05/06 00:20:22;;;;;;;;;24.00;24.00;;;26.13;98248.88;;;;117357;1191;24798;-48
2022/05/06 00:22:49;;;;;;;;;27.50;23.00;;;26.09;98250.45;;;;117402;1191;25160;-49
2022/05/06 00:25:17;;;;;;;;;29.50;25.00;;;26.10;98250.48;;;;117207;1191;25508;-52
2022/05/06 00:27:45;;;;;;;;;25.50;21.50;;;26.12;98250.31;;;;117321;1190;25589;-51
2022/05/06 00:30:13;;;;;;;;;20.00;20.00;;;26.09;98249.12;;;;117352;1191;24836;-55
2022/05/06 00:32:41;;;;;;;;;23.33;21.33;;;26.09;98245.60;;;;117358;1190;26508;-54
2022/05/06 00:35:09;;;;;;;;;23.50;19.25;;;26.06;98241.17;;;;117339;1190;25042;-50
2022/05/06 00:37:37;;;;;;;;;17.67;16.00;;;26.05;98239.48;;;;117374;1188;25362;-53
2022/05/06 00:40:05;;;;;;;;;23.00;19.50;;;26.05;98238.00;;;;117432;1191;25244;-51
2022/05/06 00:42:33;;;;;;;;;21.25;18.00;;;26.04;98236.72;;;;117323;1191;24759;-54
2022/05/06 00:45:02;;;;;;;;;19.50;19.50;;;26.04;98234.95;;;;117370;1189;24789;-55
2022/05/06 00:47:29;;;;;;;;;22.50;21.00;;;26.01;98232.90;;;;117358;1189;25656;-49
2022/05/06 00:49:58;;;;;;;;;19.50;19.00;;;25.99;98231.67;;;;117394;1191;25471;-51
2022/05/06 00:52:26;;;;;;;;;16.67;15.33;;;26.03;98232.69;;;;117366;1190;25264;-48
2022/05/06 00:54:54;;;;;;;;;22.00;19.50;;;26.01;98233.70;;;;117439;1190;25343;-49
2022/05/06 00:57:22;;;;;;;;;21.33;17.33;;;26.03;98236.42;;;;117222;1192;25786;-50
2022/05/06 01:02:37;;;;;;;;;20.50;18.50;;;26.02;98238.60;;;;117333;1190;25553;-50
2022/05/06 01:05:07;;;;;;;;;20.00;16.50;;;25.97;98240.40;;;;117364;1191;25403;-49
2022/05/06 01:07:36;;;;;;;;;19.25;17.25;;;25.98;98241.16;;;;117339;1190;25440;-50
2022/05/06 01:10:04;;;;;;;;;22.33;20.67;;;25.99;98239.23;;;;117395;1191;26226;-50
2022/05/06 01:12:33;;;;;;;;;23.00;19.67;;;25.98;98241.04;;;;117332;1189;25571;-51
2022/05/06 01:15:01;;;;;;;;;21.00;19.67;;;25.97;98244.52;;;;117409;1190;25114;-51
2022/05/06 01:17:29;;;;;;;;;17.00;17.00;;;26.00;98241.15;;;;117408;1189;25555;-49
2022/05/06 01:19:57;;;;;;;;;20.00;17.33;;;25.99;98240.80;;;;117344;1191;25333;-51
2022/05/06 01:22:26;;;;;;;;;17.75;16.50;;;25.97;98239.83;;;;117385;1189;25098;-52
2022/05/06 01:24:55;;;;;;;;;20.00;17.00;;;25.97;98234.20;;;;117368;1190;25458;-52
2022/05/06 01:27:28;;;;;;;;;16.00;14.33;;;25.97;98230.80;;;;117419;1190;25056;-50
2022/05/06 01:29:56;;;;;;;;;16.00;16.00;;;25.98;98230.21;;;;117390;1190;25518;-50
2022/05/06 01:32:27;;;;;;;;;20.25;19.50;;;25.97;98230.83;;;;117334;1191;24769;-49
2022/05/06 01:34:56;;;;;;;;;21.33;21.33;;;25.99;98228.48;;;;117412;1190;25773;-46
2022/05/06 01:37:24;;;;;;;;;15.00;15.00;;;25.99;98224.19;;;;117098;1192;25377;-48
2022/05/06 01:39:56;;;;;;;;;16.00;15.50;;;25.96;98223.80;;;;117143;1192;25134;-51
2022/05/06 01:42:25;;;;;;;;;17.00;15.00;;;25.96;98220.73;;;;117422;1190;25480;-52
2022/05/06 01:44:55;;;;;;;;;19.33;18.67;;;25.99;98218.46;;;;117121;1190;26304;-47
2022/05/06 01:47:26;;;;;;;;;16.33;15.67;;;25.97;98218.23;;;;117386;1190;25271;-49
2022/05/06 01:49:56;;;;;;;;;17.67;17.67;;;25.96;98218.70;;;;117428;1190;25486;-53
2022/05/06 01:52:25;;;;;;;;;22.00;18.33;;;25.97;98215.48;;;;117404;1188;24801;-50
2022/05/06 01:54:53;;;;;;;;;20.00;16.25;;;25.97;98222.09;;;;117458;1190;25058;-50
2022/05/06 01:57:21;;;;;;;;;24.33;19.67;;;25.98;98226.08;;;;117332;1190;25106;-51
2022/05/06 01:59:49;;;;;;;;;14.33;13.67;;;25.96;98225.44;;;;117308;1191;25231;-52
2022/05/06 02:02:17;;;;;;;;;13.00;11.67;;;25.93;98231.42;;;;117430;1189;24867;-50
2022/05/06 02:07:31;;;;;;;;;13.67;13.33;;;25.92;98239.59;;;;117348;1189;25125;-52
2022/05/06 02:09:59;;;;;;;;;15.75;13.50;;;25.88;98238.14;;;;117433;1190;24921;-50
2022/05/06 02:12:27;;;;;;;;;14.50;12.50;;;25.89;98237.58;;;;117369;1191;25056;-50
2022/05/06 02:14:55;;;;;;;;;17.25;15.75;;;25.91;98238.20;;;;117348;1190;24850;-51
2022/05/06 02:17:22;;;;;;;;;16.33;16.33;;;25.88;98237.55;;;;117350;1190;24838;-49
2022/05/06 02:19:51;;;;;;;;;17.00;15.00;;;25.87;98241.31;;;;117364;1189;25016;-53
2022/05/06 02:22:19;;;;;;;;;14.50;14.50;;;25.85;98245.77;;;;117401;1190;25221;-52
2022/05/06 02:24:47;;;;;;;;;21.50;15.50;;;25.87;98242.51;;;;117394;1191;25158;-51
2022/05/06 02:27:15;;;;;;;;;14.00;13.00;;;25.88;98242.06;;;;117380;1190;24986;-50
2022/05/06 02:33:12;;;;;;;;;17.00;12.00;;;25.84;98242.74;;;;117326;1190;25072;-49
2022/05/06 02:35:16;;;;;;;;;14.25;14.25;;;25.91;98247.72;;;;117366;1190;25550;-52
2022/05/06 02:37:44;;;;;;;;;15.75;15.25;;;25.87;98246.06;;;;117346;1191;25123;-49
2022/05/06 02:40:12;;;;;;;;;17.75;13.50;;;25.84;98245.52;;;;117370;1190;25201;-49
2022/05/06 02:42:40;;;;;;;;;14.00;13.75;;;25.84;98247.86;;;;117347;1189;24775;-50
2022/05/06 02:45:08;;;;;;;;;15.33;12.67;;;25.82;98248.68;;;;117343;1191;25616;-52
2022/05/06 02:47:38;;;;;;;;;16.00;13.00;;;25.81;98250.55;;;;117401;1190;26662;-47
2022/05/06 02:50:07;;;;;;;;;16.50;14.25;;;25.83;98250.57;;;;117337;1190;25296;-52
2022/05/06 02:52:34;;;;;;;;;18.67;16.67;;;25.80;98251.54;;;;117423;1190;25443;-50
2022/05/06 02:55:03;;;;;;;;;14.50;13.50;;;25.82;98249.30;;;;117447;1191;25317;-50
2022/05/06 02:57:31;;;;;;;;;13.67;13.67;;;25.81;98252.14;;;;117265;1191;25032;-51
2022/05/06 02:59:59;;;;;;;;;16.00;14.00;;;25.83;98250.70;;;;117357;1191;24992;-49
2022/05/06 03:02:27;;;;;;;;;14.75;14.75;;;25.79;98249.67;;;;117431;1191;25500;-52
2022/05/06 03:04:55;;;;;;;;;20.33;15.67;;;25.79;98249.52;;;;117079;1192;24874;-48
2022/05/06 03:07:23;;;;;;;;;17.50;14.50;;;25.78;98249.77;;;;117365;1190;25664;-49
2022/05/06 03:09:52;;;;;;;;;17.00;16.75;;;25.75;98250.61;;;;117315;1191;25605;-47
2022/05/06 03:12:29;;;;;;;;;14.67;13.33;;;25.75;98257.57;;;;117534;1190;25026;-48
2022/05/06 03:15:03;;;;;;;;;15.00;13.50;;;25.78;98263.25;;;;117335;1191;25765;-50
2022/05/06 03:17:32;;;;;;;;;13.50;12.75;;;25.79;98267.10;;;;117085;1192;25604;-50
2022/05/06 03:20:01;;;;;;;;;17.00;16.75;;;25.78;98270.30;;;;117458;1191;24769;-48
2022/05/06 03:22:29;;;;;;;;;15.25;13.50;;;25.79;98279.08;;;;117411;1190;24926;-49
2022/05/06 03:24:57;;;;;;;;;16.00;16.00;;;25.76;98277.98;;;;117412;1191;25108;-50
2022/05/06 03:30:19;;;;;;;;;18.25;17.75;;;25.79;98282.54;;;;117372;1190;25428;-53
2022/05/06 03:32:47;;;;;;;;;16.00;14.33;;;25.82;98285.05;;;;117406;1190;24818;-50
2022/05/06 03:35:17;;;;;;;;;18.33;17.33;;;25.79;98283.91;;;;117187;1192;24883;-57
2022/05/06 03:37:45;;;;;;;;;15.67;15.67;;;25.75;98281.95;;;;117372;1189;24733;-51
2022/05/06 03:40:14;;;;;;;;;21.75;18.75;;;25.75;98281.25;;;;117334;1190;24891;-51
2022/05/06 03:42:42;;;;;;;;;16.00;16.00;;;25.72;98285.29;;;;117396;1190;25727;-52
2022/05/06 03:45:10;;;;;;;;;21.50;17.50;;;25.73;98282.84;;;;117335;1191;26365;-49
2022/05/06 03:47:38;;;;;;;;;24.50;20.50;;;25.73;98278.27;;;;117366;1191;25196;-52
2022/05/06 03:52:55;;;;;;;;;16.33;16.33;;;25.72;98281.94;;;;117462;1191;25422;-50
2022/05/06 03:55:23;;;;;;;;;18.33;18.00;;;25.77;98282.60;;;;117382;1190;25158;-49
2022/05/06 03:57:52;;;;;;;;;21.67;17.67;;;25.81;98282.36;;;;117405;1190;25486;-51
2022/05/06 04:00:20;;;;;;;;;18.00;16.75;;;25.86;98285.52;;;;117483;1190;25212;-53
2022/05/06 04:02:51;;;;;;;;;20.75;17.25;;;25.88;98286.65;;;;117353;1191;25530;-53
2022/05/06 04:05:20;;;;;;;;;20.67;17.67;;;25.85;98290.98;;;;117357;1190;25491;-52
2022/05/06 04:07:54;;;;;;;;;20.33;17.67;;;25.91;98293.42;;;;117431;1191;25538;-52
2022/05/06 04:10:22;;;;;;;;;16.75;16.00;;;25.88;98294.02;;;;117375;1190;25495;-51
2022/05/06 04:12:52;;;;;;;;;15.00;15.00;;;25.84;98289.77;;;;117315;1191;25022;-47
2022/05/06 04:15:22;;;;;;;;;18.67;16.33;;;25.76;98291.98;;;;117445;1190;26005;-50
2022/05/06 04:17:51;;;;;;;;;18.00;16.00;;;25.80;98291.21;;;;117330;1191;25936;-48
2022/05/06 04:26:04;;;;;;;;;14.50;12.50;;;25.88;98308.98;;;;117388;1190;24886;-49
2022/05/06 04:28:35;;;;;;;;;16.33;13.67;;;25.84;98311.36;;;;117350;1191;25004;-46
2022/05/06 04:31:05;;;;;;;;;20.67;16.67;;;25.81;98305.17;;;;117353;1189;25712;-45
2022/05/06 04:33:39;;;;;;;;;21.00;16.67;;;25.78;98303.10;;;;117387;1189;25560;-50
2022/05/06 04:36:09;;;;;;;;;23.67;17.67;;;25.75;98303.86;;;;117719;1189;25559;-51
2022/05/06 04:38:37;;;;;;;;;21.00;18.00;;;25.86;98304.54;;;;117634;1188;25579;-48
2022/05/06 04:41:05;;;;;;;;;22.00;17.67;;;25.93;98304.19;;;;117475;1190;25021;-50
2022/05/06 04:43:33;;;;;;;;;24.00;19.50;;;25.94;98301.19;;;;117430;1190;25485;-49
2022/05/06 04:46:02;;;;;;;;;30.00;22.50;;;25.94;98299.73;;;;117349;1191;25572;-51
2022/05/06 04:48:32;;;;;;;;;28.50;22.00;;;25.90;98298.43;;;;117551;1190;25251;-48
2022/05/06 04:51:00;;;;;;;;;35.67;26.00;;;25.92;98300.16;;;;117513;1191;25522;-46
2022/05/06 04:53:28;;;;;;;;;37.00;31.00;;;25.85;98303.12;;;;117729;1190;25427;-48
2022/05/06 04:55:57;;;;;;;;;26.33;20.33;;;25.85;98302.74;;;;117399;1190;25378;-52
2022/05/06 04:58:28;;;;;;;;;29.00;22.00;;;25.82;98302.80;;;;117456;1190;25538;-49
2022/05/06 05:01:02;;;;;;;;;28.67;21.33;;;25.79;98303.58;;;;117445;1190;25653;-52
2022/05/06 05:03:30;;;;;;;;;30.67;25.67;;;25.74;98304.52;;;;117453;1190;25264;-51
2022/05/06 05:05:58;;;;;;;;;25.67;23.67;;;25.66;98306.27;;;;117346;1189;25585;-52
2022/05/06 05:08:26;;;;;;;;;28.50;25.50;;;25.60;98309.14;;;;117380;1189;25408;-48
2022/05/06 05:11:02;;;;;;;;;27.50;23.00;;;25.53;98307.42;;;;117342;1189;25436;-49
2022/05/06 05:13:34;;;;;;;;;30.00;27.00;;;25.52;98309.68;;;;117379;1191;25867;-47
2022/05/06 05:16:02;;;;;;;;;31.33;26.00;;;25.50;98313.77;;;;117333;1188;24899;-51
2022/05/06 05:18:31;;;;;;;;;32.00;26.00;;;25.45;98317.48;;;;117334;1189;25287;-50
2022/05/06 05:20:59;;;;;;;;;23.67;22.67;;;25.44;98324.78;;;;117460;1190;25317;-49
2022/05/06 05:23:26;;;;;;;;;26.33;25.00;;;25.41;98326.05;;;;117455;1190;26216;-51
2022/05/06 05:25:54;;;;;;;;;27.67;25.67;;;25.41;98329.70;;;;117385;1191;25735;-49
2022/05/06 05:28:23;;;;;;;;;27.67;26.00;;;25.36;98330.96;;;;117379;1191;25940;-53
2022/05/06 05:30:53;;;;;;;;;28.50;23.50;;;25.35;98333.21;;;;117332;1190;25463;-51
2022/05/06 05:33:21;;;;;;;;;34.33;29.00;;;25.32;98335.96;;;;117374;1190;25426;-51
2022/05/06 05:35:49;;;;;;;;;27.00;22.67;;;25.33;98336.11;;;;117378;1188;24821;-49
2022/05/06 05:38:19;;;;;;;;;22.67;19.00;;;25.32;98333.51;;;;117373;1190;26150;-52
2022/05/06 05:40:47;;;;;;;;;19.00;17.00;;;25.30;98331.91;;;;117375;1190;26376;-48
2022/05/06 05:48:52;;;;;;;;;27.00;23.33;;;25.29;98333.98;;;;117832;1188;25645;-52
2022/05/06 05:51:20;;;;;;;;;29.00;23.00;;;25.26;98334.61;;;;117787;1188;25111;-50
2022/05/06 05:53:50;;;;;;;;;26.67;22.33;;;25.27;98334.03;;;;117499;1186;25671;-52
2022/05/06 05:56:22;;;;;;;;;26.67;25.67;;;25.24;98334.02;;;;117837;1187;25006;-47
2022/05/06 05:58:51;;;;;;;;;23.50;23.00;;;25.24;98330.21;;;;117797;1188;25362;-49
2022/05/06 06:01:20;;;;;;;;;26.33;24.00;;;25.23;98331.66;;;;117896;1188;25232;-49
2022/05/06 06:03:49;;;;;;;;;29.00;25.50;;;25.27;98332.42;;;;117784;1187;25197;-50
2022/05/06 06:06:19;;;;;;;;;26.67;21.33;;;25.27;98332.95;;;;117388;1190;25066;-50
2022/05/06 06:08:50;;;;;;;;;26.00;20.33;;;25.27;98330.79;;;;117786;1188;25631;-48
2022/05/06 06:11:17;;;;;;;;;25.50;25.50;;;25.21;98324.61;;;;117447;1188;25154;-53
2022/05/06 06:13:45;;;;;;;;;32.00;28.00;;;25.22;98326.13;;;;117361;1190;25234;-47
2022/05/06 06:16:20;;;;;;;;;33.33;27.67;;;25.30;98328.19;;;;117747;1186;24841;-47
2022/05/06 06:18:52;;;;;;;;;28.00;27.00;;;25.24;98328.23;;;;117392;1190;25251;-51
2022/05/06 06:21:22;;;;;;;;;28.00;24.33;;;25.29;98328.08;;;;117402;1190;25736;-49
2022/05/06 06:23:51;;;;;;;;;33.33;29.67;;;25.28;98328.92;;;;117683;1188;25657;-50
2022/05/06 06:26:21;;;;;;;;;38.00;30.00;;;25.27;98328.81;;;;117628;1189;25034;-49
2022/05/06 06:28:51;;;;;;;;;33.67;28.33;;;25.27;98323.31;;;;117627;1188;25312;-49
2022/05/06 06:31:21;;;;;;;;;30.33;26.67;;;25.28;98323.04;;;;117511;1190;24953;-50
2022/05/06 06:33:52;;;;;;;;;29.33;27.00;;;25.30;98319.40;;;;117833;1188;25705;-50
2022/05/06 06:36:23;;;;;;;;;26.67;25.33;;;25.30;98318.14;;;;117380;1190;24737;-49
2022/05/06 06:38:54;;;;;;;;;36.00;29.33;;;25.29;98317.48;;;;117776;1186;25629;-50
2022/05/06 06:41:26;;;;;;;;;28.00;25.00;;;25.24;98317.95;;;;117436;1188;24856;-51
2022/05/06 06:43:57;;;;;;;;;30.33;24.00;;;25.29;98319.15;;;;117790;1188;25727;-50
2022/05/06 06:46:29;;;;;;;;;23.67;20.33;;;25.28;98315.23;;;;117352;1189;25604;-50
2022/05/06 06:49:04;;;;;;;;;31.67;29.33;;;25.25;98315.73;;;;117816;1187;25554;-52
2022/05/06 06:51:35;;;;;;;;;32.33;24.67;;;25.31;98319.55;;;;117793;1188;24917;-51
2022/05/06 06:54:05;;;;;;;;;26.50;24.00;;;25.30;98318.68;;;;117811;1187;25729;-50
2022/05/06 06:56:35;;;;;;;;;32.50;27.50;;;25.28;98316.75;;;;117491;1189;25427;-50
2022/05/06 06:59:05;;;;;;;;;34.33;29.67;;;25.28;98317.40;;;;117392;1190;25813;-51
2022/05/06 07:01:34;;;;;;;;;38.00;31.00;;;25.30;98318.02;;;;117835;1188;25172;-53
2022/05/06 07:04:03;;;;;;;;;41.33;31.33;;;25.30;98319.37;;;;117765;1186;24903;-49
2022/05/06 07:12:08;;;;;;;;;37.00;30.33;;;25.31;98316.94;;;;117806;1187;25251;-50
2022/05/06 07:14:38;;;;;;;;;35.00;30.33;;;25.32;98315.01;;;;117775;1188;25076;-52
2022/05/06 07:17:10;;;;;;;;;36.00;31.67;;;25.33;98309.64;;;;117382;1189;25442;-52
2022/05/06 07:19:47;;;;;;;;;35.00;28.50;;;25.29;98307.48;;;;117793;1187;25062;-51
2022/05/06 07:22:18;;;;;;;;;28.00;27.50;;;25.32;98303.48;;;;117765;1188;25310;-48
2022/05/06 07:24:56;;;;;;;;;30.00;27.00;;;25.31;98298.67;;;;117831;1188;26039;-48
2022/05/06 07:27:27;;;;;;;;;34.00;29.33;;;25.35;98297.33;;;;117379;1190;24796;-53
2022/05/06 07:29:59;;;;;;;;;44.67;35.00;;;25.33;98297.87;;;;117785;1188;25392;-49
2022/05/06 07:32:32;;;;;;;;;35.00;32.00;;;25.35;98294.97;;;;117805;1187;25848;-53
2022/05/06 07:35:04;;;;;;;;;39.67;33.00;;;25.33;98296.95;;;;117789;1188;25222;-50
2022/05/06 07:37:36;;;;;;;;;44.67;36.33;;;25.34;98296.99;;;;117805;1188;24882;-50
2022/05/06 07:40:09;;;;;;;;;43.00;35.50;;;25.37;98297.92;;;;117447;1188;25364;-51
2022/05/06 07:42:40;;;;;;;;;37.33;31.67;;;25.37;98297.03;;;;117377;1189;26051;-52
2022/05/06 07:45:16;;;;;;;;;34.33;32.33;;;25.38;98298.21;;;;117838;1188;25500;-50
2022/05/06 07:47:45;;;;;;;;;38.67;33.33;;;25.29;98298.13;;;;117865;1186;25378;-53
2022/05/06 07:50:26;;;;;;;;;31.00;28.00;;;25.36;98292.87;;;;117412;1189;24853;-50
2022/05/06 07:52:56;;;;;;;;;41.33;30.67;;;25.43;98293.67;;;;117537;1189;25368;-48
2022/05/06 07:55:24;;;;;;;;;32.00;30.00;;;25.44;98291.92;;;;117511;1189;25441;-49
2022/05/06 07:57:53;;;;;;;;;31.33;29.33;;;25.44;98291.35;;;;117772;1188;26150;-49
2022/05/06 08:00:26;;;;;;;;;33.50;30.50;;;25.48;98292.27;;;;117422;1190;24973;-49
2022/05/06 08:05:49;;;;;;;;;24.33;23.00;;;25.53;98293.89;;;;117906;1187;25463;-51
2022/05/06 08:08:21;;;;;;;;;26.67;25.67;;;25.58;98294.81;;;;117938;1188;25180;-51
2022/05/06 08:10:48;;;;;;;;;30.33;24.33;;;25.59;98296.67;;;;117531;1187;25222;-51
2022/05/06 08:13:19;;;;;;;;;26.67;24.67;;;25.56;98293.93;;;;117411;1188;25605;-51
2022/05/06 08:15:55;;;;;;;;;31.00;26.67;;;25.55;98294.67;;;;117510;1190;25111;-49
2022/05/06 08:18:24;;;;;;;;;24.33;21.33;;;25.56;98296.14;;;;117771;1188;25309;-54
2022/05/06 08:20:54;;;;;;;;;26.50;21.50;;;25.57;98299.55;;;;117890;1186;24750;-53
2022/05/06 08:23:23;;;;;;;;;26.50;23.50;;;25.61;98299.59;;;;117850;1188;25278;-57
2022/05/06 08:25:51;;;;;;;;;26.67;20.33;;;25.59;98298.56;;;;117710;1189;25572;-51
2022/05/06 08:28:20;;;;;;;;;23.33;22.67;;;25.66;98302.33;;;;117486;1188;25779;-51
2022/05/06 08:30:49;;;;;;;;;29.33;24.33;;;25.64;98306.78;;;;117478;1189;25431;-53
2022/05/06 08:33:17;;;;;;;;;29.67;25.33;;;25.65;98303.50;;;;117705;1187;26065;-50
2022/05/06 08:35:46;;;;;;;;;30.00;24.50;;;25.66;98300.23;;;;117933;1187;25693;-51
2022/05/06 08:38:15;;;;;;;;;22.50;22.00;;;25.67;98297.81;;;;117734;1187;25537;-52
2022/05/06 08:40:48;;;;;;;;;23.25;18.00;;;25.70;98297.77;;;;117436;1190;25428;-51
2022/05/06 08:43:17;;;;;;;;;26.00;21.00;;;25.70;98296.41;;;;117434;1186;24933;-51
2022/05/06 08:51:31;;;;;;;;;30.00;28.00;;;25.68;98286.60;;;;117780;1188;24902;-48
2022/05/06 08:54:00;;;;;;;;;32.00;27.67;;;25.66;98287.39;;;;117823;1186;25196;-51
2022/05/06 08:56:29;;;;;;;;;41.33;29.00;;;25.65;98287.08;;;;117889;1188;25783;-50
2022/05/06 08:58:58;;;;;;;;;34.67;32.67;;;25.65;98280.77;;;;117814;1186;25618;-50
2022/05/06 09:01:26;;;;;;;;;40.33;27.67;;;25.62;98284.45;;;;117801;1186;25409;-51
2022/05/06 09:03:56;;;;;;;;;29.33;28.33;;;25.60;98278.67;;;;117516;1188;25068;-48
2022/05/06 09:06:30;;;;;;;;;43.00;31.67;;;25.60;98277.66;;;;117822;1186;25690;-51
2022/05/06 09:08:59;;;;;;;;;37.33;26.33;;;25.60;98273.56;;;;117865;1188;25383;-49
2022/05/06 09:14:20;;;;;;;;;37.33;30.00;;;25.62;98274.06;;;;117735;1186;25115;-51
2022/05/06 09:16:50;;;;;;;;;31.67;26.67;;;25.62;98276.93;;;;117839;1188;25479;-50
2022/05/06 09:19:27;;;;;;;;;29.67;26.33;;;25.61;98273.56;;;;117464;1188;25323;-52
2022/05/06 09:22:05;;;;;;;;;31.00;26.67;;;25.60;98275.90;;;;117791;1189;25013;-50
2022/05/06 09:24:34;;;;;;;;;23.00;22.00;;;25.60;98272.94;;;;117439;1189;25357;-50
2022/05/06 09:27:03;;;;;;;;;27.00;25.00;;;25.60;98269.95;;;;117389;1188;24722;-50
2022/05/06 09:29:40;;;;;;;;;30.67;27.00;;;25.60;98273.96;;;;117365;1189;25603;-51
2022/05/06 09:32:30;;;;;;;;;29.33;20.33;;;25.56;98271.57;;;;117389;1190;25050;-53
2022/05/06 09:34:59;;;;;;;;;19.00;19.00;;;25.59;98270.14;;;;117388;1189;25548;-51
2022/05/06 09:37:36;;;;;;;;;21.00;20.67;;;25.55;98268.98;;;;117411;1188;25165;-52
2022/05/06 09:40:15;;;;;;;;;19.50;19.00;;;25.57;98267.84;;;;117378;1190;24972;-51
2022/05/06 09:42:45;;;;;;;;;22.50;19.00;;;25.60;98266.41;;;;117426;1188;25794;-47
2022/05/06 09:45:14;;;;;;;;;24.33;21.67;;;25.63;98263.27;;;;117432;1189;25050;-50
2022/05/06 09:47:42;;;;;;;;;21.67;21.00;;;25.63;98263.77;;;;117413;1190;25285;-51
2022/05/06 09:50:11;;;;;;;;;20.00;17.67;;;25.61;98266.19;;;;117417;1189;26249;-52
2022/05/06 09:52:39;;;;;;;;;21.33;19.33;;;25.59;98266.42;;;;117463;1188;25267;-47
2022/05/06 09:55:07;;;;;;;;;18.00;18.00;;;25.56;98269.27;;;;117429;1188;24948;-48
2022/05/06 09:57:36;;;;;;;;;15.50;14.50;;;25.57;98269.80;;;;117481;1189;24725;-51
2022/05/06 10:00:06;;;;;;;;;19.67;17.67;;;25.61;98268.83;;;;117491;1190;24870;-50
2022/05/06 10:02:37;;;;;;;;;17.00;16.67;;;25.60;98269.00;;;;117507;1188;26292;-50
2022/05/06 10:05:06;;;;;;;;;16.33;15.00;;;25.60;98270.67;;;;117480;1190;25418;-50
2022/05/06 10:07:34;;;;;;;;;20.00;16.75;;;25.61;98264.58;;;;117544;1189;25682;-50
2022/05/06 10:10:06;;;;;;;;;19.00;16.67;;;25.61;98256.60;;;;117517;1189;24850;-49
2022/05/06 10:12:53;;;;;;;;;20.67;18.67;;;25.60;98253.45;;;;117435;1190;25549;-50
2022/05/06 10:15:23;;;;;;;;;20.75;17.00;;;25.65;98251.31;;;;117424;1188;25140;-49
2022/05/06 10:18:02;;;;;;;;;19.33;18.00;;;25.68;98250.23;;;;117444;1190;24786;-51
2022/05/06 10:23:08;;;;;;;;;16.33;14.67;;;25.67;98251.76;;;;117815;1188;24945;-49
2022/05/06 10:25:42;;;;;;;;;14.00;12.67;;;25.67;98250.45;;;;117391;1190;25292;-51
2022/05/06 10:34:22;;;;;;;;;14.75;12.75;;;25.72;98254.00;;;;117786;1188;25233;-50
2022/05/06 10:36:53;;;;;;;;;19.33;16.00;;;25.69;98256.23;;;;117815;1186;25409;-48
2022/05/06 10:39:24;;;;;;;;;23.33;18.67;;;25.66;98252.64;;;;117433;1189;25648;-49
2022/05/06 10:41:59;;;;;;;;;17.67;14.33;;;25.65;98245.42;;;;117750;1187;25351;-49
2022/05/06 10:44:49;;;;;;;;;29.67;22.67;;;25.62;98240.50;;;;117825;1188;26519;-49
2022/05/06 10:47:19;;;;;;;;;31.33;24.67;;;25.65;98233.73;;;;117828;1187;25334;-50
2022/05/06 10:49:51;;;;;;;;;23.00;21.33;;;25.62;98231.91;;;;117779;1187;25397;-49
2022/05/06 10:52:26;;;;;;;;;19.00;16.67;;;25.61;98234.04;;;;117885;1188;25641;-48
2022/05/06 10:55:00;;;;;;;;;21.67;19.00;;;25.62;98237.70;;;;117845;1188;24865;-50
2022/05/06 10:57:31;;;;;;;;;17.25;15.75;;;25.64;98235.00;;;;117851;1188;24753;-52
2022/05/06 11:00:06;;;;;;;;;21.50;19.00;;;25.65;98235.23;;;;117846;1188;25533;-52
2022/05/06 11:02:36;;;;;;;;;19.00;16.00;;;25.66;98230.42;;;;117788;1188;24812;-51
2022/05/06 11:05:09;;;;;;;;;19.50;16.50;;;25.66;98232.08;;;;117391;1189;25672;-50
2022/05/06 11:07:39;;;;;;;;;19.50;17.25;;;25.64;98230.00;;;;117853;1188;25176;-51
2022/05/06 11:10:21;;;;;;;;;19.50;16.00;;;25.68;98232.14;;;;117844;1187;25206;-51
2022/05/06 11:12:51;;;;;;;;;20.00;19.33;;;25.69;98234.77;;;;117409;1190;25077;-47
2022/05/06 11:15:27;;;;;;;;;25.33;23.33;;;25.71;98232.68;;;;117381;1190;26040;-48
2022/05/06 11:17:56;;;;;;;;;21.67;19.33;;;25.74;98228.27;;;;117876;1186;25000;-51
2022/05/06 11:20:31;;;;;;;;;23.33;21.00;;;25.77;98222.98;;;;117842;1187;26476;-47
2022/05/06 11:23:09;;;;;;;;;22.50;19.50;;;25.76;98219.58;;;;117386;1190;25624;-47
2022/05/06 11:25:40;;;;;;;;;20.33;17.33;;;25.76;98216.11;;;;117376;1190;25623;-47
2022/05/06 11:28:24;;;;;;;;;21.50;18.00;;;25.75;98213.84;;;;117826;1188;25646;-51
2022/05/06 11:30:53;;;;;;;;;25.00;18.50;;;25.75;98209.91;;;;117770;1187;25675;-49
2022/05/06 11:33:26;;;;;;;;;21.33;19.67;;;25.73;98209.33;;;;117839;1186;25592;-47
2022/05/06 11:36:02;;;;;;;;;19.50;18.75;;;25.72;98209.71;;;;117772;1186;25326;-50
2022/05/06 11:38:39;;;;;;;;;19.67;15.67;;;25.71;98205.31;;;;117799;1187;25556;-47
2022/05/06 11:41:10;;;;;;;;;25.00;20.00;;;25.72;98203.19;;;;117849;1186;25459;-48
2022/05/06 11:43:40;;;;;;;;;18.00;15.67;;;25.72;98198.48;;;;117959;1187;25609;-51
2022/05/06 11:49:08;;;;;;;;;25.50;23.00;;;25.79;98192.91;;;;117839;1188;24772;-50
2022/05/06 11:51:44;;;;;;;;;24.50;21.50;;;25.77;98193.22;;;;117846;1187;25755;-49
2022/05/06 11:54:14;;;;;;;;;30.33;21.00;;;25.76;98194.11;;;;117813;1188;25777;-51
2022/05/06 11:56:42;;;;;;;;;24.00;22.00;;;25.76;98187.09;;;;117831;1188;25549;-49
2022/05/06 11:59:10;;;;;;;;;21.50;19.50;;;25.77;98179.73;;;;117844;1187;25687;-50
2022/05/06 12:01:39;;;;;;;;;24.25;20.25;;;25.75;98173.85;;;;117483;1190;25669;-48
2022/05/06 12:04:09;;;;;;;;;20.00;17.75;;;25.80;98167.14;;;;117874;1187;25763;-51
2022/05/06 12:06:40;;;;;;;;;21.00;18.67;;;25.82;98161.29;;;;117855;1187;25871;-50
2022/05/06 12:09:11;;;;;;;;;15.25;15.25;;;25.83;98162.52;;;;117414;1190;25087;-48
2022/05/06 12:11:40;;;;;;;;;26.33;19.00;;;25.85;98158.08;;;;117801;1187;24804;-51
2022/05/06 12:14:17;;;;;;;;;21.00;18.75;;;25.85;98155.01;;;;117742;1188;24910;-49
2022/05/06 12:17:03;;;;;;;;;14.25;10.75;;;25.88;98151.20;;;;117789;1188;25101;-52
2022/05/06 12:19:35;;;;;;;;;21.50;18.00;;;25.92;98149.23;;;;117866;1187;25766;-47
2022/05/06 12:22:25;;;;;;;;;18.00;17.00;;;25.92;98148.34;;;;117372;1190;24994;-50
2022/05/06 12:24:56;;;;;;;;;16.75;13.00;;;26.00;98146.36;;;;117833;1187;25068;-51
2022/05/06 12:27:29;;;;;;;;;20.00;15.00;;;26.03;98146.73;;;;117768;1188;25405;-51
2022/05/06 12:29:58;;;;;;;;;16.67;16.67;;;26.03;98143.75;;;;117805;1187;25150;-48
2022/05/06 12:32:29;;;;;;;;;16.00;15.25;;;26.02;98141.85;;;;117833;1187;26019;-51
2022/05/06 12:35:08;;;;;;;;;16.50;14.00;;;26.04;98137.14;;;;117819;1188;24882;-51
2022/05/06 12:37:52;;;;;;;;;30.00;21.00;;;26.03;98133.80;;;;117785;1189;25584;-51
2022/05/06 12:40:20;;;;;;;;;21.00;19.67;;;26.08;98131.34;;;;117783;1188;24728;-49
2022/05/06 12:43:05;;;;;;;;;24.00;22.00;;;26.10;98128.20;;;;117850;1187;25464;-50
2022/05/06 12:45:33;;;;;;;;;29.00;26.00;;;26.11;98132.04;;;;117856;1186;25302;-49
2022/05/06 12:50:47;;;;;;;;;30.25;22.00;;;26.09;98132.69;;;;117550;1188;24848;-51
2022/05/06 12:53:15;;;;;;;;;24.00;22.00;;;26.07;98130.09;;;;117838;1186;25392;-52
2022/05/06 12:55:43;;;;;;;;;20.67;20.67;;;26.07;98122.45;;;;117786;1186;25299;-51
2022/05/06 12:58:11;;;;;;;;;23.00;16.33;;;26.06;98118.34;;;;117841;1187;25141;-52
2022/05/06 13:00:39;;;;;;;;;21.50;19.25;;;26.06;98106.95;;;;117860;1187;24709;-52
2022/05/06 13:03:07;;;;;;;;;27.00;23.00;;;26.06;98102.40;;;;117826;1186;25279;-50